Time;durP1;ratioP1;P1;durP2;ratioP2;P2;SDS_P1;SDS_P2;PMS_P1;PMS_P2;Temp;Humidity;BMP_temperature;BMP_pressure;BME280_temperature;BME280_humidity;BME280_pressure;Samples;Min_cycle;Max_cycle;Signal;HPM_P1;HPM_P2
2023/11/25 00:00:50;;;;;;;6.90;1.20;;;4.50;99.90;;;;;;5069536;28;20020;-74
2023/11/25 00:03:16;;;;;;;7.32;1.10;;;4.50;99.90;;;;;;5069450;28;20040;-74
2023/11/25 00:05:42;;;;;;;9.70;1.40;;;4.50;99.90;;;;;;5069426;28;20028;-74
2023/11/25 00:08:08;;;;;;;7.03;1.40;;;4.50;99.90;;;;;;5067989;28;20035;-74
2023/11/25 00:10:34;;;;;;;10.82;1.33;;;4.40;99.90;;;;;;5069092;28;20188;-74
2023/11/25 00:13:00;;;;;;;13.77;1.85;;;4.40;99.90;;;;;;5069084;28;20028;-73
2023/11/25 00:15:25;;;;;;;13.02;1.65;;;4.40;99.90;;;;;;5069619;28;20527;-73
2023/11/25 00:17:52;;;;;;;11.75;1.60;;;4.50;99.90;;;;;;5069264;28;20032;-73
2023/11/25 00:20:21;;;;;;;15.75;2.00;;;4.40;99.90;;;;;;5069278;28;20027;-73
2023/11/25 00:22:47;;;;;;;8.00;1.50;;;4.40;99.90;;;;;;5069196;28;20024;-73
2023/11/25 00:25:13;;;;;;;12.20;1.45;;;4.40;99.90;;;;;;5069184;28;20061;-74
2023/11/25 00:27:39;;;;;;;14.68;1.98;;;4.40;99.90;;;;;;5069037;28;20082;-74
2023/11/25 00:30:06;;;;;;;12.95;1.80;;;4.40;99.90;;;;;;5069208;28;20016;-74
2023/11/25 00:32:37;;;;;;;13.48;1.92;;;4.40;99.90;;;;;;5069037;28;20028;-75
2023/11/25 00:35:03;;;;;;;9.13;1.60;;;4.40;99.90;;;;;;5067577;28;20090;-73
2023/11/25 00:37:31;;;;;;;13.82;1.70;;;4.40;99.90;;;;;;5057506;28;20028;-74
2023/11/25 00:39:59;;;;;;;8.65;1.95;;;4.40;99.90;;;;;;5036317;28;20041;-74
2023/11/25 00:42:25;;;;;;;9.68;1.83;;;4.50;99.90;;;;;;5069401;28;20028;-74
2023/11/25 00:44:50;;;;;;;11.82;1.85;;;4.40;99.90;;;;;;5068686;28;20028;-74
2023/11/25 00:47:16;;;;;;;14.13;1.73;;;4.50;99.90;;;;;;5055060;28;20029;-74
2023/11/25 00:49:43;;;;;;;14.50;2.10;;;4.50;99.90;;;;;;5068619;28;20017;-74
2023/11/25 00:52:10;;;;;;;11.60;1.90;;;4.40;99.90;;;;;;5068865;28;20235;-74
2023/11/25 00:54:36;;;;;;;12.95;2.15;;;4.50;99.90;;;;;;5068346;28;20128;-73
2023/11/25 00:57:02;;;;;;;14.93;1.73;;;4.50;99.90;;;;;;5050756;28;20123;-73
2023/11/25 00:59:29;;;;;;;9.32;1.50;;;4.50;99.90;;;;;;5068343;28;20028;-73
2023/11/25 01:01:55;;;;;;;12.25;1.83;;;4.50;99.90;;;;;;5068872;28;20501;-74
2023/11/25 01:04:20;;;;;;;12.88;2.17;;;4.50;99.90;;;;;;5049975;28;20031;-74
2023/11/25 01:06:47;;;;;;;11.85;1.75;;;4.50;99.90;;;;;;5068600;28;20028;-74
2023/11/25 01:09:15;;;;;;;14.82;1.98;;;4.50;99.90;;;;;;5068472;28;20703;-74
2023/11/25 01:11:42;;;;;;;9.40;1.77;;;4.50;99.90;;;;;;5050275;28;20595;-74
2023/11/25 01:14:08;;;;;;;13.50;2.00;;;4.50;99.90;;;;;;5068368;28;20392;-73
2023/11/25 01:16:34;;;;;;;14.05;1.92;;;4.50;99.90;;;;;;5068422;28;20032;-73
2023/11/25 01:19:00;;;;;;;15.48;2.10;;;4.50;99.90;;;;;;5068075;28;20043;-74
2023/11/25 01:21:25;;;;;;;14.55;1.60;;;4.50;99.90;;;;;;5068231;28;20501;-74
2023/11/25 01:23:51;;;;;;;14.13;2.35;;;4.50;99.90;;;;;;5067383;28;20029;-74
2023/11/25 01:26:17;;;;;;;17.23;2.25;;;4.50;99.90;;;;;;5068245;28;20079;-73
2023/11/25 01:28:43;;;;;;;13.25;2.13;;;4.50;99.90;;;;;;5049861;28;20017;-74
2023/11/25 01:31:10;;;;;;;17.13;2.92;;;4.50;99.90;;;;;;5068330;28;20492;-74
2023/11/25 01:33:36;;;;;;;14.35;2.85;;;4.50;99.90;;;;;;5049554;28;20029;-73
2023/11/25 01:36:02;;;;;;;17.88;2.25;;;4.50;99.90;;;;;;5068197;28;20021;-74
2023/11/25 01:38:28;;;;;;;15.90;1.90;;;4.50;99.90;;;;;;5067395;28;20116;-74
2023/11/25 01:40:55;;;;;;;18.08;2.55;;;4.50;99.90;;;;;;5049892;28;20052;-73
2023/11/25 01:43:25;;;;;;;20.70;2.47;;;4.50;99.90;;;;;;5067518;28;20067;-74
2023/11/25 01:45:52;;;;;;;17.13;2.20;;;4.50;99.90;;;;;;5067406;28;20028;-73
2023/11/25 01:48:19;;;;;;;15.05;2.17;;;4.50;99.90;;;;;;5067288;28;20127;-73
2023/11/25 01:50:45;;;;;;;16.50;2.38;;;4.50;99.90;;;;;;5067725;28;20094;-74
2023/11/25 01:53:14;;;;;;;13.90;2.20;;;4.50;99.90;;;;;;5067495;28;20056;-74
2023/11/25 01:55:41;;;;;;;18.00;2.30;;;4.50;99.90;;;;;;5067427;28;20032;-75
2023/11/25 01:58:10;;;;;;;13.63;1.83;;;4.50;99.90;;;;;;5067358;28;20036;-73
2023/11/25 02:00:38;;;;;;;17.00;2.20;;;4.50;99.90;;;;;;5049063;28;20392;-74
2023/11/25 02:03:05;;;;;;;12.38;2.30;;;4.50;99.90;;;;;;5067408;28;20021;-73
2023/11/25 02:05:31;;;;;;;15.45;1.90;;;4.50;99.90;;;;;;5067000;28;20032;-74
2023/11/25 02:07:57;;;;;;;13.93;1.58;;;4.50;99.90;;;;;;5067550;28;20028;-74
2023/11/25 02:10:26;;;;;;;12.68;1.70;;;4.50;99.90;;;;;;5066993;28;20028;-73
2023/11/25 02:12:51;;;;;;;19.55;2.17;;;4.50;99.90;;;;;;5067168;28;20020;-73
2023/11/25 02:15:18;;;;;;;12.70;1.90;;;4.60;99.90;;;;;;5049062;28;20426;-74
2023/11/25 02:17:47;;;;;;;16.77;1.65;;;4.50;99.90;;;;;;5067094;28;20052;-74
2023/11/25 02:20:16;;;;;;;18.30;2.47;;;4.60;99.90;;;;;;5066698;28;20024;-73
2023/11/25 02:22:57;;;;;;;14.55;1.85;;;4.50;99.90;;;;;;5066992;28;20017;-74
2023/11/25 02:25:23;;;;;;;15.05;2.08;;;4.50;99.90;;;;;;5048805;28;20029;-74
2023/11/25 02:27:49;;;;;;;16.27;2.22;;;4.60;99.90;;;;;;5066706;28;20025;-74
2023/11/25 02:30:15;;;;;;;17.45;1.88;;;4.50;99.90;;;;;;5066803;28;20020;-74
2023/11/25 02:32:41;;;;;;;14.60;1.70;;;4.50;99.90;;;;;;5066885;28;20017;-74
2023/11/25 02:35:07;;;;;;;10.52;1.95;;;4.60;99.90;;;;;;5066660;28;20012;-74
2023/11/25 02:37:33;;;;;;;14.63;1.75;;;4.60;99.90;;;;;;5066667;28;20116;-74
2023/11/25 02:39:59;;;;;;;13.05;1.83;;;4.60;99.90;;;;;;5046481;28;20156;-74
2023/11/25 02:42:26;;;;;;;17.33;1.98;;;4.60;99.90;;;;;;5047126;28;20112;-74
2023/11/25 02:44:51;;;;;;;18.23;1.77;;;4.60;99.90;;;;;;5046458;28;20025;-74
2023/11/25 02:47:18;;;;;;;12.13;1.52;;;4.60;99.90;;;;;;5046604;28;20044;-74
2023/11/25 02:49:43;;;;;;;17.58;1.90;;;4.60;99.90;;;;;;5046520;28;20021;-75
2023/11/25 02:52:09;;;;;;;14.70;1.83;;;4.70;99.90;;;;;;5031388;28;20169;-74
2023/11/25 02:54:35;;;;;;;10.30;1.65;;;4.60;99.90;;;;;;5046356;28;20021;-74
2023/11/25 02:57:01;;;;;;;12.68;1.63;;;4.60;99.90;;;;;;5045996;28;20017;-74
2023/11/25 02:59:26;;;;;;;17.65;1.63;;;4.60;99.90;;;;;;5046605;28;20025;-74
2023/11/25 03:01:52;;;;;;;10.98;1.60;;;4.60;99.90;;;;;;5046564;28;20028;-74
2023/11/25 03:04:26;;;;;;;14.85;2.15;;;4.60;99.90;;;;;;5031036;28;20029;-74
2023/11/25 03:06:52;;;;;;;13.85;1.80;;;4.60;99.90;;;;;;5046735;28;20029;-73
2023/11/25 03:09:18;;;;;;;11.55;1.80;;;4.60;99.90;;;;;;5046522;28;20025;-74
2023/11/25 03:11:43;;;;;;;13.30;1.83;;;4.60;99.90;;;;;;5036730;28;20017;-74
2023/11/25 03:14:09;;;;;;;11.73;1.80;;;4.60;99.90;;;;;;5046438;28;20474;-74
2023/11/25 03:16:35;;;;;;;8.40;1.63;;;4.60;99.90;;;;;;5046534;28;20539;-74
2023/11/25 03:19:01;;;;;;;12.18;1.73;;;4.60;99.90;;;;;;5046004;28;20027;-73
2023/11/25 03:21:28;;;;;;;18.70;2.20;;;4.50;99.90;;;;;;5046539;28;20360;-74
2023/11/25 03:23:54;;;;;;;11.95;1.63;;;4.50;99.90;;;;;;5046289;28;20032;-74
2023/11/25 03:26:21;;;;;;;13.23;1.95;;;4.50;99.90;;;;;;5046339;28;20029;-74
2023/11/25 03:28:48;;;;;;;11.18;1.73;;;4.50;99.90;;;;;;5046122;28;20104;-74
2023/11/25 03:31:13;;;;;;;14.52;2.67;;;4.40;99.90;;;;;;5046174;28;20017;-74
2023/11/25 03:33:39;;;;;;;10.30;1.73;;;4.40;99.90;;;;;;5046335;28;20075;-74
2023/11/25 03:36:05;;;;;;;15.35;2.45;;;4.40;99.90;;;;;;5046272;28;20028;-73
2023/11/25 03:38:31;;;;;;;13.20;1.83;;;4.40;99.90;;;;;;5044722;28;20040;-74
2023/11/25 03:40:57;;;;;;;17.38;2.20;;;4.40;99.90;;;;;;5054286;28;20245;-74
2023/11/25 03:43:26;;;;;;;14.77;1.60;;;4.40;99.90;;;;;;5066241;28;20024;-74
2023/11/25 03:45:52;;;;;;;16.15;1.92;;;4.40;99.90;;;;;;5065755;28;20027;-73
2023/11/25 03:48:18;;;;;;;13.63;1.55;;;4.30;99.90;;;;;;5048115;28;20028;-74
2023/11/25 03:50:45;;;;;;;11.98;2.00;;;4.30;99.90;;;;;;5061506;28;20017;-74
2023/11/25 03:53:11;;;;;;;13.63;1.58;;;4.30;99.90;;;;;;5048407;28;20238;-74
2023/11/25 03:55:37;;;;;;;12.23;1.77;;;4.20;99.90;;;;;;5065830;28;20029;-74
2023/11/25 03:58:04;;;;;;;12.55;2.28;;;4.20;99.90;;;;;;5066391;28;20031;-74
2023/11/25 04:00:32;;;;;;;11.38;1.95;;;4.10;99.90;;;;;;5065967;28;20036;-73
2023/11/25 04:02:57;;;;;;;13.48;1.90;;;4.10;99.90;;;;;;5066349;28;20552;-74
2023/11/25 04:05:23;;;;;;;15.57;1.73;;;4.00;99.90;;;;;;5065827;28;20119;-74
2023/11/25 04:07:49;;;;;;;13.95;2.17;;;4.00;99.90;;;;;;5043008;28;20025;-73
2023/11/25 04:10:17;;;;;;;12.50;1.65;;;4.10;99.90;;;;;;5044250;28;20031;-74
2023/11/25 04:12:48;;;;;;;17.15;1.95;;;4.10;99.90;;;;;;5069506;28;20052;-74
2023/11/25 04:15:15;;;;;;;;;;;4.00;99.90;;;;;;5069987;28;20031;-73
2023/11/25 04:17:42;;;;;;;13.98;1.85;;;4.00;99.90;;;;;;5069449;28;20000;-74
2023/11/25 04:20:17;;;;;;;18.02;2.00;;;4.00;99.90;;;;;;5069138;28;20038;-73
2023/11/25 04:22:45;;;;;;;9.90;1.90;;;4.00;99.90;;;;;;5069987;28;20027;-73
2023/11/25 04:25:12;;;;;;;22.77;1.90;;;4.00;99.90;;;;;;5069023;28;20036;-74
2023/11/25 04:27:42;;;;;;;24.27;2.38;;;4.10;99.90;;;;;;5069126;28;20071;-74
2023/11/25 04:30:11;;;;;;;12.53;1.77;;;4.10;99.90;;;;;;5069541;28;20020;-74
2023/11/25 04:32:39;;;;;;;11.90;1.75;;;4.10;99.90;;;;;;5068678;28;20099;-73
2023/11/25 04:35:06;;;;;;;15.38;2.03;;;4.10;99.90;;;;;;5068912;28;20071;-73
2023/11/25 04:37:32;;;;;;;10.98;1.23;;;4.20;99.90;;;;;;5068905;28;20032;-74
2023/11/25 04:39:58;;;;;;;17.42;1.83;;;4.20;99.90;;;;;;5054623;28;20071;-74
2023/11/25 04:42:24;;;;;;;7.75;1.40;;;4.30;99.90;;;;;;5069256;28;20052;-73
2023/11/25 04:44:50;;;;;;;14.48;2.38;;;4.30;99.90;;;;;;5068964;28;20075;-73
2023/11/25 04:47:15;;;;;;;21.00;2.13;;;4.40;99.90;;;;;;5068911;28;20124;-73
2023/11/25 04:49:41;;;;;;;10.77;1.70;;;4.40;99.90;;;;;;5068573;28;20028;-74
2023/11/25 04:52:07;;;;;;;17.80;1.95;;;4.40;99.90;;;;;;5069045;28;20103;-74
2023/11/25 04:54:32;;;;;;;21.65;1.90;;;4.50;99.90;;;;;;5060644;28;20032;-74
2023/11/25 04:57:01;;;;;;;12.10;1.70;;;4.50;99.90;;;;;;5068506;28;20044;-74
2023/11/25 04:59:29;;;;;;;15.18;1.90;;;4.50;99.90;;;;;;5068533;28;20119;-74
2023/11/25 05:01:55;;;;;;;20.52;2.25;;;4.60;99.90;;;;;;5069042;28;20059;-74
2023/11/25 05:04:20;;;;;;;13.00;1.80;;;4.60;99.90;;;;;;5068436;28;20447;-74
2023/11/25 05:06:46;;;;;;;22.23;2.40;;;4.60;99.90;;;;;;5067441;28;20036;-74
2023/11/25 05:09:18;;;;;;;13.30;1.52;;;4.60;99.90;;;;;;5068414;28;20051;-73
2023/11/25 05:11:44;;;;;;;14.60;1.75;;;4.60;99.90;;;;;;5068909;28;20121;-74
2023/11/25 05:14:10;;;;;;;13.65;1.83;;;4.60;99.90;;;;;;5068602;28;20315;-74
2023/11/25 05:16:35;;;;;;;14.07;2.15;;;4.60;99.90;;;;;;5068562;28;20830;-74
2023/11/25 05:19:02;;;;;;;13.23;1.90;;;4.70;99.90;;;;;;5068661;28;20044;-74
2023/11/25 05:21:28;;;;;;;20.55;2.30;;;4.70;99.90;;;;;;5067993;28;20090;-73
2023/11/25 05:23:54;;;;;;;13.23;2.05;;;4.70;99.90;;;;;;5068213;28;20032;-74
2023/11/25 05:26:20;;;;;;;15.88;1.73;;;4.70;99.90;;;;;;5050472;28;20021;-74
2023/11/25 05:28:45;;;;;;;12.15;1.92;;;4.70;99.90;;;;;;5068347;28;20128;-74
2023/11/25 05:31:11;;;;;;;11.52;1.88;;;4.60;99.90;;;;;;5067868;28;20028;-73
2023/11/25 05:33:37;;;;;;;15.35;2.33;;;4.50;99.90;;;;;;5068097;28;20060;-74
2023/11/25 05:36:03;;;;;;;19.63;2.10;;;4.50;99.90;;;;;;5067755;28;20036;-74
2023/11/25 05:38:29;;;;;;;11.70;2.22;;;4.40;99.90;;;;;;5060761;28;20047;-74
2023/11/25 05:40:55;;;;;;;12.77;2.00;;;4.40;99.90;;;;;;5061090;28;20024;-74
2023/11/25 05:43:24;;;;;;;13.52;1.92;;;4.30;99.90;;;;;;5067990;28;20063;-74
2023/11/25 05:45:50;;;;;;;10.18;1.83;;;4.30;99.90;;;;;;5067660;28;20082;-74
2023/11/25 05:48:17;;;;;;;9.27;1.45;;;4.20;99.90;;;;;;5067774;28;20029;-74
2023/11/25 05:50:42;;;;;;;13.30;1.80;;;4.20;99.90;;;;;;5067477;28;20040;-73
2023/11/25 05:53:08;;;;;;;11.20;1.50;;;4.20;99.90;;;;;;5049853;28;20017;-73
2023/11/25 05:55:34;;;;;;;7.38;1.48;;;4.20;99.90;;;;;;5048842;28;20024;-74
2023/11/25 05:57:59;;;;;;;14.57;1.48;;;4.30;99.90;;;;;;5067572;28;20063;-73
2023/11/25 06:00:25;;;;;;;8.93;1.10;;;4.30;99.90;;;;;;5067145;28;20486;-74
2023/11/25 06:02:54;;;;;;;8.52;1.20;;;4.30;99.90;;;;;;5067718;28;20029;-74
2023/11/25 06:05:19;;;;;;;6.95;1.00;;;4.30;99.90;;;;;;5067098;28;20028;-73
2023/11/25 06:07:45;;;;;;;10.82;1.30;;;4.40;99.90;;;;;;5067541;28;20027;-73
2023/11/25 06:10:11;;;;;;;5.22;1.08;;;4.40;99.90;;;;;;5067230;28;20090;-73
2023/11/25 06:12:37;;;;;;;7.00;1.50;;;4.40;99.90;;;;;;5044839;28;20129;-73
2023/11/25 06:15:04;;;;;;;13.70;1.38;;;4.40;99.90;;;;;;5058059;28;20111;-73
2023/11/25 06:17:30;;;;;;;6.88;1.02;;;4.40;99.90;;;;;;5067158;28;20031;-73
2023/11/25 06:19:56;;;;;;;4.82;0.90;;;4.40;99.90;;;;;;5066947;28;20028;-74
2023/11/25 06:22:21;;;;;;;6.57;1.42;;;4.50;99.90;;;;;;5067475;28;20052;-74
2023/11/25 06:24:47;;;;;;;8.55;1.17;;;4.50;99.90;;;;;;5066694;28;20086;-74
2023/11/25 06:27:13;;;;;;;7.28;0.95;;;4.50;99.90;;;;;;5067037;28;20028;-73
2023/11/25 06:29:39;;;;;;;7.05;0.98;;;4.50;99.90;;;;;;5050196;28;20024;-73
2023/11/25 06:32:07;;;;;;;9.60;1.27;;;4.50;99.90;;;;;;5066355;28;20770;-73
2023/11/25 06:34:34;;;;;;;7.28;1.23;;;4.50;99.90;;;;;;5048624;28;20017;-74
2023/11/25 06:37:00;;;;;;;6.85;1.10;;;4.50;99.90;;;;;;5059853;28;20444;-73
2023/11/25 06:39:31;;;;;;;6.35;1.10;;;4.50;99.90;;;;;;5056123;28;20052;-73
2023/11/25 06:42:00;;;;;;;7.97;2.25;;;4.50;99.90;;;;;;5067234;28;20559;-73
2023/11/25 06:44:29;;;;;;;15.38;1.60;;;4.50;99.90;;;;;;5067100;28;20095;-73
2023/11/25 06:46:55;;;;;;;8.90;1.30;;;4.50;99.90;;;;;;5067085;28;20025;-73
2023/11/25 06:49:21;;;;;;;6.25;1.00;;;4.50;99.90;;;;;;5066682;28;20033;-74
2023/11/25 06:51:47;;;;;;;7.10;0.98;;;4.50;99.90;;;;;;5066892;28;20016;-74
2023/11/25 06:54:13;;;;;;;6.53;0.77;;;4.50;99.90;;;;;;5065288;28;20362;-73
2023/11/25 06:56:39;;;;;;;8.98;1.23;;;4.50;99.90;;;;;;5066844;28;20026;-73
2023/11/25 06:59:05;;;;;;;6.07;0.93;;;4.50;99.90;;;;;;5066889;28;20017;-74
2023/11/25 07:01:32;;;;;;;8.23;1.35;;;4.50;99.90;;;;;;5066419;28;20988;-74
2023/11/25 07:03:57;;;;;;;9.30;1.25;;;4.50;99.90;;;;;;5066656;28;20035;-73
2023/11/25 07:06:23;;;;;;;8.55;1.23;;;4.60;99.90;;;;;;5059253;28;20017;-73
2023/11/25 07:08:49;;;;;;;4.80;1.02;;;4.60;99.90;;;;;;5048334;28;20021;-73
2023/11/25 07:11:16;;;;;;;6.65;1.20;;;4.60;99.90;;;;;;5066605;28;20013;-74
2023/11/25 07:13:42;;;;;;;4.95;0.85;;;4.60;99.90;;;;;;5066134;28;20058;-73
2023/11/25 07:16:11;;;;;;;6.55;1.25;;;4.60;99.90;;;;;;5066232;28;20112;-73
2023/11/25 07:18:42;;;;;;;7.57;1.00;;;4.70;99.90;;;;;;5066447;28;20036;-73
2023/11/25 07:21:11;;;;;;;;;;;4.70;99.90;;;;;;5066626;28;20060;-73
2023/11/25 07:23:38;;;;;;;5.43;0.70;;;4.70;99.90;;;;;;5066547;28;19928;-73
2023/11/25 07:26:05;;;;;;;5.65;1.10;;;4.70;99.90;;;;;;5048110;28;20016;-73
2023/11/25 07:28:32;;;;;;;9.10;1.27;;;4.70;99.90;;;;;;5066280;28;20028;-74
2023/11/25 07:30:59;;;;;;;5.28;0.95;;;4.70;99.90;;;;;;5066314;28;20100;-73
2023/11/25 07:33:24;;;;;;;8.98;1.83;;;4.80;99.90;;;;;;5066470;28;20020;-74
2023/11/25 07:35:50;;;;;;;9.90;1.00;;;4.80;99.90;;;;;;5054242;28;20032;-73
2023/11/25 07:38:16;;;;;;;8.65;1.10;;;4.80;99.90;;;;;;5060445;28;20044;-73
2023/11/25 07:40:42;;;;;;;6.65;1.27;;;4.80;99.90;;;;;;5057390;28;20036;-73
2023/11/25 07:43:07;;;;;;;4.75;1.17;;;4.80;99.90;;;;;;5066586;28;20079;-73
2023/11/25 07:45:33;;;;;;;6.88;1.00;;;4.80;99.90;;;;;;5056557;28;20048;-73
2023/11/25 07:47:59;;;;;;;4.25;1.10;;;4.90;99.90;;;;;;5056258;28;20407;-73
2023/11/25 07:50:24;;;;;;;7.00;1.00;;;4.80;99.90;;;;;;5067543;28;20390;-73
2023/11/25 07:52:53;;;;;;;10.68;1.10;;;4.80;99.90;;;;;;5069744;28;20111;-73
2023/11/25 07:55:19;;;;;;;13.55;1.40;;;4.90;99.90;;;;;;5069926;28;20083;-73
2023/11/25 07:57:49;;;;;;;4.75;1.00;;;4.90;99.90;;;;;;5068385;28;20573;-73
2023/11/25 08:00:19;;;;;;;5.65;1.27;;;4.90;99.90;;;;;;5069705;28;20024;-73
2023/11/25 08:02:47;;;;;;;5.82;0.98;;;4.90;99.90;;;;;;5069733;28;20070;-73
2023/11/25 08:05:21;;;;;;;2.45;0.75;;;4.90;99.90;;;;;;5069504;28;20507;-73
2023/11/25 08:07:49;;;;;;;7.05;1.00;;;4.90;99.90;;;;;;5056222;28;20056;-73
2023/11/25 08:10:15;;;;;;;5.32;0.93;;;4.90;99.90;;;;;;5069402;28;20025;-73
2023/11/25 08:12:42;;;;;;;6.72;1.17;;;4.90;99.90;;;;;;5069097;28;20569;-73
2023/11/25 08:15:09;;;;;;;9.60;1.02;;;5.00;99.90;;;;;;5060121;28;20420;-73
2023/11/25 08:17:36;;;;;;;5.32;1.05;;;5.00;99.90;;;;;;5051156;28;20031;-73
2023/11/25 08:20:02;;;;;;;4.32;0.98;;;5.00;99.90;;;;;;5068986;28;20444;-74
2023/11/25 08:22:28;;;;;;;4.68;0.80;;;5.00;99.90;;;;;;5069225;28;20032;-73
2023/11/25 08:24:56;;;;;;;4.07;0.93;;;5.00;99.90;;;;;;5068609;28;20024;-73
2023/11/25 08:27:22;;;;;;;6.50;0.85;;;5.10;99.90;;;;;;5068681;28;20086;-73
2023/11/25 08:29:48;;;;;;;7.88;0.85;;;5.10;99.90;;;;;;5060883;28;20036;-73
2023/11/25 08:32:13;;;;;;;7.40;0.80;;;5.10;99.90;;;;;;5069137;28;20024;-73
2023/11/25 08:34:39;;;;;;;4.72;0.65;;;5.20;99.90;;;;;;5068801;28;20017;-73
2023/11/25 08:37:07;;;;;;;8.00;1.02;;;5.20;99.90;;;;;;5068739;28;20070;-73
2023/11/25 08:39:33;;;;;;;3.83;0.60;;;5.20;99.90;;;;;;5065441;28;20933;-73
2023/11/25 08:41:59;;;;;;;9.82;1.20;;;5.20;99.90;;;;;;5038949;28;20086;-73
2023/11/25 08:44:26;;;;;;;8.55;1.13;;;5.20;99.90;;;;;;5068523;28;20371;-73
2023/11/25 08:46:53;;;;;;;3.38;1.00;;;5.30;99.90;;;;;;5068442;28;20071;-73
2023/11/25 08:49:21;;;;;;;4.03;0.88;;;5.30;99.90;;;;;;5068664;28;20066;-73
2023/11/25 08:51:49;;;;;;;6.57;0.98;;;5.40;99.90;;;;;;5068395;28;20025;-73
2023/11/25 08:54:20;;;;;;;3.40;0.63;;;5.40;99.90;;;;;;5068855;28;20039;-73
2023/11/25 08:56:47;;;;;;;5.07;0.85;;;5.50;99.90;;;;;;5067270;28;20081;-73
2023/11/25 08:59:17;;;;;;;3.83;0.82;;;5.50;99.90;;;;;;5068506;28;20020;-73
2023/11/25 09:01:43;;;;;;;7.23;0.97;;;5.60;99.90;;;;;;5067798;28;20086;-73
2023/11/25 09:04:13;;;;;;;4.97;1.05;;;5.60;99.90;;;;;;5068700;28;20020;-73
2023/11/25 09:06:39;;;;;;;6.70;0.80;;;5.70;99.90;;;;;;5067742;28;20027;-73
2023/11/25 09:09:09;;;;;;;3.42;0.95;;;5.70;99.90;;;;;;5068057;28;20024;-73
2023/11/25 09:11:35;;;;;;;4.03;0.93;;;5.70;99.90;;;;;;5050219;28;20063;-73
2023/11/25 09:14:03;;;;;;;3.30;0.88;;;5.70;99.90;;;;;;5068628;28;20028;-73
2023/11/25 09:16:29;;;;;;;4.70;0.75;;;5.80;99.90;;;;;;5050104;28;20024;-73
2023/11/25 09:18:55;;;;;;;4.05;0.80;;;5.80;99.90;;;;;;5050489;28;20842;-73
2023/11/25 09:21:24;;;;;;;2.38;0.82;;;5.80;99.90;;;;;;5066985;28;20665;-75
2023/11/25 09:23:50;;;;;;;5.32;1.20;;;5.90;99.90;;;;;;5068086;28;20599;-75
2023/11/25 09:26:16;;;;;;;5.82;1.10;;;6.00;99.90;;;;;;5067717;28;20040;-74
2023/11/25 09:28:41;;;;;;;3.42;0.73;;;6.10;99.90;;;;;;5068063;28;20025;-75
2023/11/25 09:31:07;;;;;;;6.20;0.93;;;6.20;99.90;;;;;;5067479;28;20027;-74
2023/11/25 09:33:33;;;;;;;5.75;1.10;;;6.30;99.90;;;;;;5068195;28;20024;-74
2023/11/25 09:35:59;;;;;;;6.10;0.80;;;6.40;99.90;;;;;;5067858;28;20039;-74
2023/11/25 09:38:25;;;;;;;4.80;0.80;;;6.40;99.90;;;;;;5061412;28;20052;-74
2023/11/25 09:40:51;;;;;;;4.55;0.82;;;6.50;99.90;;;;;;5061003;28;20029;-74
2023/11/25 09:43:17;;;;;;;11.07;1.30;;;6.50;99.90;;;;;;5067565;28;20468;-74
2023/11/25 09:45:45;;;;;;;4.57;1.00;;;6.40;99.90;;;;;;5067262;28;20028;-75
2023/11/25 09:48:11;;;;;;;5.13;1.08;;;6.50;99.90;;;;;;5066320;28;20080;-74
2023/11/25 09:50:39;;;;;;;5.40;1.20;;;6.50;99.90;;;;;;5067358;28;20017;-74
2023/11/25 09:53:22;;;;;;;6.35;1.35;;;6.60;99.90;;;;;;5067443;28;20103;-74
2023/11/25 09:56:05;;;;;;;4.75;1.20;;;6.60;99.90;;;;;;5059990;28;20071;-74
2023/11/25 09:58:37;;;;;;;3.08;0.93;;;6.60;99.90;;;;;;5066218;28;20485;-74
2023/11/25 10:01:07;;;;;;;5.63;0.70;;;6.60;99.90;;;;;;5056741;28;20025;-73
2023/11/25 10:03:34;;;;;;;5.25;1.05;;;6.70;99.90;;;;;;5064210;28;20067;-74
2023/11/25 10:06:01;;;;;;;3.70;0.90;;;6.80;99.90;;;;;;5048301;28;20040;-74
2023/11/25 10:08:27;;;;;;;6.97;0.93;;;6.80;99.90;;;;;;5048477;28;20039;-74
2023/11/25 10:11:00;;;;;;;7.80;1.20;;;6.90;99.90;;;;;;5066007;28;20381;-74
2023/11/25 10:13:32;;;;;;;8.20;2.20;;;7.00;99.90;;;;;;5045061;28;20029;-75
2023/11/25 10:15:59;;;;;;;3.50;0.95;;;7.00;99.90;;;;;;5066789;28;20051;-75
2023/11/25 10:18:24;;;;;;;8.93;1.17;;;7.10;99.90;;;;;;5049890;28;20039;-75
2023/11/25 10:20:57;;;;;;;4.60;0.82;;;7.10;99.90;;;;;;5061912;28;20029;-75
2023/11/25 10:23:23;;;;;;;8.30;1.30;;;7.20;99.90;;;;;;5067197;28;20120;-75
2023/11/25 10:25:51;;;;;;;8.45;1.25;;;7.20;99.90;;;;;;5065992;28;20071;-75
2023/11/25 10:28:21;;;;;;;7.30;1.20;;;7.20;99.90;;;;;;5065836;28;20525;-75
2023/11/25 10:30:56;;;;;;;9.50;1.40;;;7.20;99.90;;;;;;5064984;28;20024;-75
2023/11/25 10:33:24;;;;;;;8.32;1.50;;;7.20;99.90;;;;;;5066835;28;20100;-74
2023/11/25 10:35:51;;;;;;;7.55;1.40;;;7.20;99.90;;;;;;5065953;28;20017;-75
2023/11/25 10:38:19;;;;;;;7.07;1.35;;;7.30;99.90;;;;;;5062549;28;20045;-74
2023/11/25 10:40:45;;;;;;;9.32;1.85;;;7.30;99.90;;;;;;5051984;28;20054;-74
2023/11/25 10:43:11;;;;;;;6.57;1.55;;;7.40;99.90;;;;;;5065328;28;20381;-75
2023/11/25 10:45:38;;;;;;;12.23;1.42;;;7.50;99.90;;;;;;5046697;28;20025;-75
2023/11/25 10:48:04;;;;;;;8.60;1.42;;;7.60;99.90;;;;;;5064748;28;20501;-75
2023/11/25 10:50:30;;;;;;;7.50;1.52;;;7.70;99.90;;;;;;5046315;28;20111;-75
2023/11/25 10:52:58;;;;;;;9.27;1.95;;;7.80;99.90;;;;;;5065434;28;20021;-75
2023/11/25 10:55:26;;;;;;;10.70;1.50;;;7.90;99.90;;;;;;5046635;28;20028;-75
2023/11/25 10:57:53;;;;;;;10.82;1.67;;;8.00;99.90;;;;;;5065060;28;20440;-75
2023/11/25 11:00:19;;;;;;;12.48;2.35;;;8.10;99.90;;;;;;5045930;28;20032;-73
2023/11/25 11:02:50;;;;;;;11.57;1.52;;;8.20;99.90;;;;;;5071842;28;20037;-74
2023/11/25 11:05:32;;;;;;;;;;;8.40;99.90;;;;;;5062886;28;20085;-74
2023/11/25 11:08:07;;;;;;;10.32;1.40;;;8.50;99.90;;;;;;5075032;28;20292;-74
2023/11/25 11:10:50;;;;;;;13.65;1.70;;;8.50;99.90;;;;;;5072002;28;20496;-73
2023/11/25 11:13:20;;;;;;;12.23;1.60;;;8.40;99.90;;;;;;5058885;28;20028;-73
2023/11/25 11:15:51;;;;;;;13.90;1.80;;;8.40;99.90;;;;;;5069334;28;20028;-73
2023/11/25 11:18:24;;;;;;;8.05;1.63;;;8.30;99.90;;;;;;5057316;28;20059;-73
2023/11/25 11:20:51;;;;;;;12.70;1.70;;;8.30;99.90;;;;;;5078162;28;20039;-74
2023/11/25 11:23:23;;;;;;;16.35;1.85;;;8.30;99.90;;;;;;5058023;28;20032;-73
2023/11/25 11:25:48;;;;;;;8.10;1.45;;;8.30;99.90;;;;;;5070076;28;20552;-73
2023/11/25 11:28:23;;;;;;;10.48;1.70;;;8.30;99.90;;;;;;5051737;28;20119;-73
2023/11/25 11:31:09;;;;;;;10.32;1.70;;;8.30;99.90;;;;;;5070016;28;20017;-73
2023/11/25 11:33:35;;;;;;;9.00;1.63;;;8.30;99.90;;;;;;5042257;28;20024;-73
2023/11/25 11:36:05;;;;;;;6.57;1.15;;;8.40;99.90;;;;;;5069631;28;20497;-74
2023/11/25 11:38:32;;;;;;;15.80;1.83;;;8.50;99.90;;;;;;5073363;28;20045;-74
2023/11/25 11:41:10;;;;;;;7.25;1.45;;;8.60;99.90;;;;;;5069845;28;20955;-74
2023/11/25 11:43:37;;;;;;;10.07;1.40;;;8.70;99.90;;;;;;5068770;28;20104;-73
2023/11/25 11:46:04;;;;;;;9.00;1.50;;;8.70;99.90;;;;;;5052646;28;20078;-74
2023/11/25 11:48:30;;;;;;;5.75;1.45;;;8.80;99.90;;;;;;5069411;28;20025;-74
2023/11/25 11:50:58;;;;;;;9.32;1.63;;;9.00;99.90;;;;;;5069355;28;20031;-74
2023/11/25 11:53:25;;;;;;;10.00;1.30;;;9.10;99.90;;;;;;5069997;28;20032;-75
2023/11/25 11:55:57;;;;;;;6.10;1.30;;;9.30;99.90;;;;;;5076549;28;20082;-75
2023/11/25 11:58:28;;;;;;;8.52;1.90;;;9.40;99.90;;;;;;5069261;28;20032;-75
2023/11/25 12:01:03;;;;;;;8.70;1.83;;;9.50;99.90;;;;;;5062852;28;20099;-75
2023/11/25 12:03:33;;;;;;;9.80;1.50;;;9.50;99.90;;;;;;5073634;28;20028;-74
2023/11/25 12:06:00;;;;;;;12.25;2.10;;;9.50;99.90;;;;;;5066965;28;20478;-74
2023/11/25 12:08:27;;;;;;;9.27;2.20;;;9.60;99.90;;;;;;5069442;28;20033;-75
2023/11/25 12:10:53;;;;;;;10.60;1.88;;;9.70;99.90;;;;;;5068400;28;20021;-74
2023/11/25 12:13:33;;;;;;;10.68;1.92;;;9.70;99.90;;;;;;5067243;28;20055;-75
2023/11/25 12:15:59;;;;;;;13.95;2.28;;;9.80;99.90;;;;;;5073266;28;20073;-75
2023/11/25 12:18:30;;;;;;;10.85;2.35;;;9.80;99.90;;;;;;5079048;28;20024;-75
2023/11/25 12:20:57;;;;;;;14.13;2.20;;;9.70;99.90;;;;;;5083372;28;20040;-75
2023/11/25 12:23:25;;;;;;;12.20;1.75;;;9.60;99.90;;;;;;5065898;28;20033;-75
2023/11/25 12:25:53;;;;;;;9.45;2.08;;;9.50;99.90;;;;;;5083226;28;20449;-74
2023/11/25 12:28:19;;;;;;;18.88;2.45;;;9.40;99.90;;;;;;5076716;28;20024;-75
2023/11/25 12:30:45;;;;;;;8.77;1.80;;;9.40;99.90;;;;;;5056472;28;20039;-74
2023/11/25 12:33:10;;;;;;;10.60;1.95;;;9.50;99.90;;;;;;5069255;28;20056;-76
2023/11/25 12:35:41;;;;;;;7.40;1.65;;;9.70;99.90;;;;;;5069198;28;20027;-75
2023/11/25 12:38:07;;;;;;;16.27;2.20;;;9.70;99.90;;;;;;5055161;28;20029;-75
2023/11/25 12:40:34;;;;;;;9.57;2.10;;;9.70;99.90;;;;;;5053227;28;20028;-75
2023/11/25 12:43:02;;;;;;;9.50;1.90;;;9.60;99.90;;;;;;5066384;28;20083;-76
2023/11/25 12:45:33;;;;;;;7.90;1.83;;;9.50;99.90;;;;;;5069376;28;20028;-75
2023/11/25 12:48:00;;;;;;;16.05;2.47;;;9.60;99.90;;;;;;5069102;28;20050;-76
2023/11/25 12:50:30;;;;;;;8.93;1.75;;;9.70;99.90;;;;;;5050027;28;20091;-77
2023/11/25 12:53:14;;;;;;;12.45;1.80;;;9.80;99.90;;;;;;5049994;28;20501;-75